Time;durP1;ratioP1;P1;durP2;ratioP2;P2;SDS_P1;SDS_P2;PMS_P1;PMS_P2;Temp;Humidity;BMP_temperature;BMP_pressure;BME280_temperature;BME280_humidity;BME280_pressure;Samples;Min_cycle;Max_cycle;Signal;HPM_P1;HPM_P2
2020/12/07 00:00:47;;;;;;;23.95;16.27;;;7.90;89.40;;;;;;5096948;28;20483;-75
2020/12/07 00:03:16;;;;;;;21.88;16.48;;;7.90;89.40;;;;;;5092466;28;20467;-75
2020/12/07 00:05:45;;;;;;;26.90;17.38;;;7.90;89.30;;;;;;5113420;28;20919;-75
2020/12/07 00:08:13;;;;;;;23.53;16.20;;;7.80;89.60;;;;;;5092576;28;20401;-75
2020/12/07 00:10:40;;;;;;;22.75;16.38;;;7.80;89.60;;;;;;5113454;28;20860;-75
2020/12/07 00:13:06;;;;;;;23.00;15.98;;;7.70;89.70;;;;;;5111701;28;20447;-75
2020/12/07 00:15:32;;;;;;;23.00;16.58;;;7.80;89.60;;;;;;5094355;28;20469;-75
2020/12/07 00:18:01;;;;;;;22.45;16.75;;;7.70;89.90;;;;;;5113581;28;20415;-75
2020/12/07 00:20:28;;;;;;;24.70;17.02;;;7.60;90.10;;;;;;5091901;28;20442;-75
2020/12/07 00:22:56;;;;;;;23.70;16.83;;;7.60;90.10;;;;;;5095429;28;20428;-75
2020/12/07 00:25:27;;;;;;;22.25;16.60;;;7.60;90.30;;;;;;5105271;27;20414;-75
2020/12/07 00:27:56;;;;;;;25.52;17.40;;;7.70;90.00;;;;;;5133117;27;20442;-75
2020/12/07 00:30:22;;;;;;;26.40;17.83;;;7.60;89.90;;;;;;5118000;27;20489;-75
2020/12/07 00:32:49;;;;;;;26.07;18.57;;;7.60;90.10;;;;;;5095443;28;20469;-75
2020/12/07 00:35:15;;;;;;;25.73;18.17;;;7.60;90.00;;;;;;5092300;28;20445;-75
2020/12/07 00:37:41;;;;;;;25.08;17.85;;;7.50;90.20;;;;;;5113189;28;20458;-75
2020/12/07 00:40:08;;;;;;;24.30;18.02;;;7.50;90.40;;;;;;5109678;28;20901;-75
2020/12/07 00:42:37;;;;;;;24.40;17.25;;;7.40;90.40;;;;;;5095271;28;20404;-75
2020/12/07 00:45:04;;;;;;;24.20;17.08;;;7.40;90.40;;;;;;5109272;28;20479;-75
2020/12/07 00:47:30;;;;;;;27.13;16.88;;;7.40;90.40;;;;;;5112536;28;20757;-75
2020/12/07 00:49:56;;;;;;;26.17;18.20;;;7.40;90.50;;;;;;5113021;28;20787;-74
2020/12/07 00:52:23;;;;;;;25.63;17.38;;;7.30;90.60;;;;;;5109280;28;20485;-75
2020/12/07 00:54:49;;;;;;;23.40;17.47;;;7.30;90.70;;;;;;5094911;28;20396;-75
2020/12/07 00:57:18;;;;;;;25.50;17.80;;;7.40;90.60;;;;;;5091466;28;20440;-75
2020/12/07 00:59:47;;;;;;;25.38;18.05;;;7.40;90.60;;;;;;5104972;27;20438;-75
2020/12/07 01:02:14;;;;;;;25.98;18.35;;;7.40;90.50;;;;;;5099207;28;20516;-75
2020/12/07 01:04:42;;;;;;;25.63;18.00;;;7.30;90.60;;;;;;5112995;28;20534;-75
2020/12/07 01:07:11;;;;;;;24.85;17.75;;;7.30;90.60;;;;;;5109108;28;20446;-75
2020/12/07 01:09:38;;;;;;;23.42;16.38;;;7.30;90.70;;;;;;5094542;28;20400;-75
2020/12/07 01:12:05;;;;;;;23.85;17.17;;;7.40;90.50;;;;;;5109360;28;20406;-75
2020/12/07 01:14:31;;;;;;;25.70;17.13;;;7.30;90.60;;;;;;5094521;28;20431;-75
2020/12/07 01:17:01;;;;;;;25.60;15.70;;;7.30;90.60;;;;;;5091820;28;20470;-75
2020/12/07 01:19:27;;;;;;;21.40;15.98;;;7.30;90.50;;;;;;5094618;28;20470;-75
2020/12/07 01:21:53;;;;;;;24.13;16.45;;;7.40;90.40;;;;;;5112182;28;20837;-75
2020/12/07 01:24:22;;;;;;;22.77;15.73;;;7.30;90.30;;;;;;5127593;27;20823;-75
2020/12/07 01:26:48;;;;;;;22.08;15.93;;;7.20;90.20;;;;;;5114529;27;20510;-75
2020/12/07 01:29:15;;;;;;;27.08;15.93;;;7.10;90.30;;;;;;5112759;27;20490;-75
2020/12/07 01:31:44;;;;;;;22.67;15.77;;;7.10;90.50;;;;;;5112536;28;20405;-75
2020/12/07 01:34:14;;;;;;;24.02;17.55;;;7.00;90.50;;;;;;5095734;28;20409;-75
2020/12/07 01:36:41;;;;;;;28.40;19.60;;;6.80;90.30;;;;;;5091747;28;20490;-74
2020/12/07 01:39:09;;;;;;;30.73;20.63;;;6.80;90.10;;;;;;5097561;28;20730;-74
2020/12/07 01:41:36;;;;;;;33.83;23.75;;;6.60;89.80;;;;;;5094390;28;20880;-74
2020/12/07 01:44:03;;;;;;;36.45;24.23;;;6.60;90.00;;;;;;5108335;28;20431;-74
2020/12/07 01:46:29;;;;;;;41.78;27.30;;;6.60;89.10;;;;;;5111710;28;20461;-74
2020/12/07 01:48:58;;;;;;;42.08;27.00;;;6.50;89.10;;;;;;5090487;27;20428;-74
2020/12/07 01:51:25;;;;;;;42.15;27.17;;;6.30;89.70;;;;;;5111866;28;20473;-74
2020/12/07 01:53:52;;;;;;;40.55;27.50;;;6.30;89.90;;;;;;5108836;28;20502;-74
2020/12/07 01:56:28;;;;;;;48.37;28.60;;;6.20;89.30;;;;;;5093625;28;20796;-75
2020/12/07 01:58:58;;;;;;;46.47;30.42;;;6.10;89.10;;;;;;5114036;27;20490;-74
2020/12/07 02:01:26;;;;;;;46.33;30.60;;;5.90;89.70;;;;;;5108344;27;20461;-74
2020/12/07 02:03:53;;;;;;;49.28;30.10;;;5.70;90.30;;;;;;5111500;28;20472;-74
2020/12/07 02:06:20;;;;;;;46.42;30.02;;;5.60;90.50;;;;;;5108103;28;20408;-75
2020/12/07 02:08:52;;;;;;;52.25;31.02;;;5.70;90.30;;;;;;5093593;28;20396;-74
2020/12/07 02:11:19;;;;;;;53.35;32.65;;;5.70;90.10;;;;;;5108059;28;20416;-74
2020/12/07 02:13:48;;;;;;;53.72;31.60;;;5.80;89.90;;;;;;5093688;28;20404;-74
2020/12/07 02:16:14;;;;;;;54.10;32.45;;;5.80;89.70;;;;;;5107498;28;20481;-74
2020/12/07 02:18:43;;;;;;;52.55;31.85;;;5.70;89.90;;;;;;5111339;28;20415;-75
2020/12/07 02:21:12;;;;;;;54.35;32.17;;;5.60;90.20;;;;;;5096371;27;20441;-74
2020/12/07 02:23:38;;;;;;;52.83;32.30;;;5.60;90.20;;;;;;5113761;27;20542;-74
2020/12/07 02:26:04;;;;;;;56.28;33.25;;;5.60;90.30;;;;;;5105774;28;20514;-74
2020/12/07 02:28:33;;;;;;;62.00;33.33;;;5.50;90.40;;;;;;5092971;28;20461;-74
2020/12/07 02:31:00;;;;;;;56.83;33.00;;;5.60;90.30;;;;;;5107774;28;20475;-75
2020/12/07 02:33:26;;;;;;;61.15;33.88;;;5.50;90.20;;;;;;5131464;27;20414;-74
2020/12/07 02:35:52;;;;;;;58.30;32.60;;;5.50;90.20;;;;;;5131212;27;20503;-74
2020/12/07 02:38:19;;;;;;;55.72;32.22;;;5.60;90.20;;;;;;5109638;28;20404;-74
2020/12/07 02:40:47;;;;;;;58.88;32.28;;;5.50;90.30;;;;;;5110750;28;20400;-74
2020/12/07 02:43:14;;;;;;;63.15;32.80;;;5.50;90.30;;;;;;5107115;28;20456;-74
2020/12/07 02:45:40;;;;;;;58.20;32.30;;;5.60;90.20;;;;;;5111162;28;20401;-74
2020/12/07 02:48:09;;;;;;;60.97;33.42;;;5.60;90.20;;;;;;5107391;28;20493;-74
2020/12/07 02:50:38;;;;;;;58.90;31.10;;;5.50;90.20;;;;;;5112648;28;20493;-74
2020/12/07 02:53:07;;;;;;;57.73;31.00;;;5.50;90.10;;;;;;5093290;28;20493;-74
2020/12/07 02:55:33;;;;;;;55.75;29.77;;;5.80;89.50;;;;;;5115161;28;20407;-75
2020/12/07 02:58:02;;;;;;;55.55;31.17;;;5.70;89.10;;;;;;5111557;28;20408;-74
2020/12/07 03:00:28;;;;;;;54.78;30.00;;;5.60;89.70;;;;;;5100385;27;20414;-75
2020/12/07 03:02:55;;;;;;;58.60;29.97;;;5.50;90.00;;;;;;5112257;27;20394;-74
2020/12/07 03:05:21;;;;;;;53.90;28.40;;;5.60;89.80;;;;;;5114613;28;20751;-74
2020/12/07 03:07:50;;;;;;;52.90;28.60;;;5.60;89.50;;;;;;5114582;28;20433;-75
2020/12/07 03:10:16;;;;;;;56.60;29.37;;;5.60;89.80;;;;;;5093357;28;20456;-75
2020/12/07 03:12:43;;;;;;;52.90;29.30;;;5.60;89.90;;;;;;5096818;28;20875;-75
2020/12/07 03:15:09;;;;;;;53.25;28.17;;;5.50;89.90;;;;;;5111518;28;20404;-74
2020/12/07 03:17:35;;;;;;;51.90;27.95;;;5.50;90.00;;;;;;5114485;28;20439;-74
2020/12/07 03:20:02;;;;;;;51.25;27.45;;;5.50;90.00;;;;;;5110781;28;20404;-75
2020/12/07 03:22:31;;;;;;;50.05;27.70;;;5.40;90.00;;;;;;5134273;27;20402;-74
2020/12/07 03:25:00;;;;;;;51.92;26.90;;;5.60;89.90;;;;;;5104296;28;20436;-75
2020/12/07 03:27:26;;;;;;;51.77;27.50;;;5.50;89.50;;;;;;5096375;28;20457;-74
2020/12/07 03:29:53;;;;;;;50.90;27.33;;;5.50;89.80;;;;;;5109798;28;20404;-74
2020/12/07 03:32:20;;;;;;;47.30;26.17;;;5.40;89.70;;;;;;5096310;28;20895;-75
2020/12/07 03:34:46;;;;;;;51.63;26.42;;;5.50;89.90;;;;;;5090682;28;20422;-75
2020/12/07 03:37:17;;;;;;;49.03;25.88;;;5.50;89.40;;;;;;5076042;28;20406;-75
2020/12/07 03:39:43;;;;;;;46.15;26.20;;;5.40;89.40;;;;;;5093763;28;20449;-74
2020/12/07 03:42:12;;;;;;;48.50;26.15;;;5.50;89.00;;;;;;5073355;28;20479;-74
2020/12/07 03:44:38;;;;;;;45.30;24.97;;;5.70;88.30;;;;;;5093534;28;20417;-74
2020/12/07 03:47:05;;;;;;;49.20;24.98;;;5.80;87.80;;;;;;5090779;28;20485;-74
2020/12/07 03:49:31;;;;;;;46.70;24.17;;;5.70;88.30;;;;;;5076402;28;20452;-74
2020/12/07 03:51:59;;;;;;;44.78;23.77;;;5.70;88.10;;;;;;5109173;28;20397;-75
2020/12/07 03:54:26;;;;;;;45.67;24.05;;;5.60;88.30;;;;;;5103184;28;20477;-75
2020/12/07 03:56:52;;;;;;;45.15;24.73;;;5.60;88.00;;;;;;5085671;28;20444;-74
2020/12/07 03:59:18;;;;;;;41.80;23.80;;;5.70;88.00;;;;;;5075943;28;20463;-74
2020/12/07 04:01:47;;;;;;;43.40;23.90;;;5.80;87.60;;;;;;5088993;28;20450;-74
2020/12/07 04:04:19;;;;;;;44.38;24.30;;;5.70;87.50;;;;;;5075811;28;20463;-74
2020/12/07 04:06:50;;;;;;;46.55;23.00;;;5.70;87.20;;;;;;5090204;28;20486;-74
2020/12/07 04:09:17;;;;;;;42.55;23.10;;;5.60;88.00;;;;;;5093393;28;20436;-74
2020/12/07 04:11:46;;;;;;;41.13;23.55;;;5.70;87.10;;;;;;5089514;28;20900;-74
2020/12/07 04:14:12;;;;;;;43.42;23.30;;;5.70;86.90;;;;;;5075818;28;20494;-74
2020/12/07 04:16:38;;;;;;;40.95;23.25;;;5.60;87.60;;;;;;5075556;28;20755;-74
2020/12/07 04:19:05;;;;;;;43.65;23.63;;;5.50;88.40;;;;;;5089432;28;20406;-74
2020/12/07 04:21:31;;;;;;;42.85;23.08;;;5.50;88.70;;;;;;5093121;28;20410;-74
2020/12/07 04:23:57;;;;;;;41.78;23.33;;;5.40;88.40;;;;;;5089491;28;20494;-74
2020/12/07 04:26:24;;;;;;;41.60;22.70;;;5.50;87.70;;;;;;5088463;28;20469;-75
2020/12/07 04:28:53;;;;;;;38.72;22.25;;;5.50;88.20;;;;;;5109319;28;20412;-74
2020/12/07 04:31:21;;;;;;;41.10;22.90;;;5.50;87.90;;;;;;5113570;28;20475;-74
2020/12/07 04:33:48;;;;;;;39.63;23.20;;;5.40;88.30;;;;;;5117767;27;20880;-75
2020/12/07 04:36:17;;;;;;;40.85;23.30;;;5.40;88.60;;;;;;5115928;27;21307;-74
2020/12/07 04:38:43;;;;;;;40.97;22.50;;;5.30;88.60;;;;;;5106013;28;20841;-74
2020/12/07 04:41:09;;;;;;;43.60;23.55;;;5.30;88.80;;;;;;5095600;28;20417;-74
2020/12/07 04:43:36;;;;;;;39.53;22.23;;;5.30;88.70;;;;;;5092361;27;20459;-74
2020/12/07 04:46:05;;;;;;;41.70;22.15;;;5.30;88.50;;;;;;5095203;28;20447;-74
2020/12/07 04:48:34;;;;;;;39.75;22.60;;;5.40;88.60;;;;;;5095234;28;20432;-76
2020/12/07 04:51:01;;;;;;;39.97;21.42;;;5.40;88.40;;;;;;5109424;28;20929;-74
2020/12/07 04:53:27;;;;;;;38.75;21.70;;;5.30;88.70;;;;;;5095048;28;20412;-74
2020/12/07 04:55:57;;;;;;;39.88;22.27;;;5.30;88.50;;;;;;5109410;28;20818;-74
2020/12/07 04:58:26;;;;;;;38.42;21.60;;;5.30;88.80;;;;;;5095274;28;20400;-75
2020/12/07 05:00:53;;;;;;;38.10;22.27;;;5.30;88.50;;;;;;5108639;28;20478;-74
2020/12/07 05:03:19;;;;;;;39.77;21.77;;;5.20;88.70;;;;;;5094857;28;20515;-74
2020/12/07 05:05:51;;;;;;;39.67;21.38;;;5.30;88.50;;;;;;5117888;27;20712;-74
2020/12/07 05:08:18;;;;;;;34.28;20.48;;;5.30;88.50;;;;;;5115396;27;20459;-74
2020/12/07 05:10:49;;;;;;;34.37;20.07;;;5.40;88.10;;;;;;5104229;28;21108;-74
2020/12/07 05:15:43;;;;;;;36.72;20.50;;;5.30;88.20;;;;;;5108304;28;20469;-75
2020/12/07 05:18:12;;;;;;;37.97;20.98;;;5.30;88.50;;;;;;5112566;28;20503;-74
2020/12/07 05:20:40;;;;;;;35.67;19.70;;;5.30;88.80;;;;;;5108978;28;20459;-74
2020/12/07 05:23:13;;;;;;;35.17;19.80;;;5.30;88.20;;;;;;5094422;28;20457;-75
2020/12/07 05:25:43;;;;;;;33.72;19.30;;;5.30;88.20;;;;;;5112049;28;21196;-75
2020/12/07 05:28:12;;;;;;;34.65;19.35;;;5.30;88.10;;;;;;5091458;28;20461;-75
2020/12/07 05:30:43;;;;;;;36.08;19.88;;;5.30;89.00;;;;;;5094153;28;20523;-75
2020/12/07 05:33:12;;;;;;;31.38;18.77;;;5.20;88.60;;;;;;5107960;28;20974;-76
2020/12/07 05:35:39;;;;;;;34.67;19.77;;;5.30;88.20;;;;;;5111959;28;20841;-75
2020/12/07 05:38:06;;;;;;;28.35;17.33;;;5.30;88.30;;;;;;5090618;28;20461;-75
2020/12/07 05:40:33;;;;;;;29.35;17.90;;;5.40;87.50;;;;;;5094003;28;20396;-75
2020/12/07 05:42:59;;;;;;;31.25;17.25;;;5.50;87.10;;;;;;5108087;28;20428;-75
2020/12/07 05:45:28;;;;;;;29.17;16.77;;;5.40;87.30;;;;;;5093920;28;20420;-75
2020/12/07 05:47:58;;;;;;;27.13;16.33;;;5.50;87.00;;;;;;5090531;28;20428;-75
2020/12/07 05:50:27;;;;;;;28.20;16.03;;;5.40;87.30;;;;;;5111891;28;20396;-75
2020/12/07 05:53:00;;;;;;;25.85;15.90;;;5.30;87.20;;;;;;5108034;28;20408;-75
2020/12/07 05:55:26;;;;;;;23.83;14.68;;;5.30;87.00;;;;;;5094393;28;20388;-76
2020/12/07 05:57:56;;;;;;;26.93;15.30;;;5.40;86.50;;;;;;5091091;28;23887;-75
2020/12/07 06:00:24;;;;;;;24.75;15.45;;;5.40;86.50;;;;;;5126973;27;21116;-75
2020/12/07 06:02:54;;;;;;;23.60;14.52;;;5.30;86.80;;;;;;5132028;27;20940;-74
2020/12/07 06:05:24;;;;;;;22.42;13.85;;;5.30;87.10;;;;;;5092701;28;20473;-75
2020/12/07 06:08:12;;;;;;;22.15;14.00;;;5.30;86.50;;;;;;5100534;28;20483;-74
2020/12/07 06:10:43;;;;;;;20.73;13.32;;;5.30;85.90;;;;;;5110346;28;20454;-75
2020/12/07 06:13:18;;;;;;;20.42;12.68;;;5.40;86.00;;;;;;5093588;28;20430;-75
2020/12/07 06:15:47;;;;;;;22.60;13.80;;;5.30;85.90;;;;;;5107545;28;20402;-75
2020/12/07 06:18:36;;;;;;;21.40;13.13;;;5.40;85.70;;;;;;5093790;28;20416;-75
2020/12/07 06:21:09;;;;;;;21.77;13.77;;;5.40;85.50;;;;;;5089822;28;20454;-74
2020/12/07 06:23:41;;;;;;;22.48;13.88;;;5.50;85.40;;;;;;5093704;28;20473;-75
2020/12/07 06:26:09;;;;;;;21.48;13.35;;;5.40;85.60;;;;;;5107076;28;20929;-75
2020/12/07 06:28:42;;;;;;;21.40;13.55;;;5.50;85.00;;;;;;5093211;28;20440;-75
2020/12/07 06:31:11;;;;;;;21.70;13.55;;;5.40;85.50;;;;;;5107627;28;20429;-75
2020/12/07 06:33:43;;;;;;;23.20;14.20;;;5.40;85.40;;;;;;5108589;28;20495;-75
2020/12/07 06:36:28;;;;;;;22.17;13.90;;;5.40;85.80;;;;;;5087858;28;20493;-75
2020/12/07 06:39:00;;;;;;;22.23;13.75;;;5.30;85.70;;;;;;5091054;28;20528;-74
2020/12/07 06:41:47;;;;;;;23.33;14.18;;;5.30;86.00;;;;;;5099620;28;21000;-74
2020/12/07 06:44:20;;;;;;;23.27;14.45;;;5.20;86.10;;;;;;5110779;28;20971;-74
2020/12/07 06:46:57;;;;;;;23.50;14.13;;;5.30;86.40;;;;;;5107474;28;20479;-74
2020/12/07 06:52:28;;;;;;;25.77;15.55;;;5.20;86.60;;;;;;5107331;28;20404;-74
2020/12/07 06:55:12;;;;;;;25.97;15.80;;;5.20;86.50;;;;;;5110618;28;20438;-75
2020/12/07 06:57:51;;;;;;;26.00;15.27;;;5.20;86.30;;;;;;5089858;28;20426;-74
2020/12/07 07:00:19;;;;;;;25.90;15.93;;;5.30;86.70;;;;;;5125092;28;20415;-75
2020/12/07 07:02:58;;;;;;;25.02;15.77;;;5.30;86.30;;;;;;5099636;28;20811;-75
2020/12/07 07:05:27;;;;;;;26.50;15.85;;;5.20;86.10;;;;;;5079358;28;20838;-75
2020/12/07 07:07:56;;;;;;;24.88;15.30;;;5.30;86.70;;;;;;5107459;28;20401;-74
2020/12/07 07:10:23;;;;;;;24.90;15.48;;;5.30;86.00;;;;;;5110606;28;20399;-75
2020/12/07 07:12:51;;;;;;;25.38;14.93;;;5.30;86.20;;;;;;5080968;28;20406;-75
2020/12/07 07:15:19;;;;;;;25.10;15.00;;;5.20;86.40;;;;;;5102509;28;20852;-75
2020/12/07 07:17:48;;;;;;;26.13;15.35;;;5.10;86.70;;;;;;5088302;28;20730;-75
2020/12/07 07:20:16;;;;;;;27.70;17.20;;;5.10;86.80;;;;;;5107863;28;20409;-75
2020/12/07 07:22:47;;;;;;;28.67;16.27;;;5.10;87.00;;;;;;5104646;28;20413;-75
2020/12/07 07:30:24;;;;;;;26.35;16.52;;;5.10;87.70;;;;;;5108142;28;20726;-75
2020/12/07 07:32:52;;;;;;;26.67;15.70;;;5.20;87.40;;;;;;5109340;28;20412;-75
2020/12/07 07:35:21;;;;;;;25.63;15.75;;;5.20;86.70;;;;;;5088540;28;20400;-75
2020/12/07 07:37:50;;;;;;;29.30;15.18;;;5.20;86.60;;;;;;5096044;28;20497;-75
2020/12/07 07:40:19;;;;;;;29.33;16.27;;;5.30;86.40;;;;;;5076093;28;20467;-75
2020/12/07 07:42:56;;;;;;;31.58;16.85;;;5.30;86.10;;;;;;5075457;28;20558;-75
2020/12/07 07:45:25;;;;;;;31.65;15.95;;;5.40;86.00;;;;;;5104779;28;20846;-75
2020/12/07 07:48:01;;;;;;;27.60;15.60;;;5.40;85.90;;;;;;5113368;28;20407;-75
2020/12/07 08:16:21;;;;;;;33.85;17.65;;;5.90;83.30;;;;;;5123426;27;20451;-75
2020/12/07 08:18:51;;;;;;;34.58;18.02;;;6.00;83.30;;;;;;5095189;28;20404;-75
2020/12/07 08:21:32;;;;;;;33.57;18.07;;;6.00;83.70;;;;;;5109287;28;20419;-75
2020/12/07 08:24:10;;;;;;;35.25;17.65;;;6.00;82.90;;;;;;5117839;28;20424;-75
2020/12/07 08:26:42;;;;;;;35.42;17.88;;;6.00;83.10;;;;;;5114905;28;20419;-75
2020/12/07 08:29:09;;;;;;;32.40;17.38;;;6.10;83.10;;;;;;5097239;28;20494;-75
2020/12/07 08:31:39;;;;;;;28.20;16.35;;;6.20;82.20;;;;;;5091574;28;20442;-75
2020/12/07 08:34:17;;;;;;;29.30;15.95;;;6.30;81.70;;;;;;5094955;28;20400;-75
2020/12/07 08:36:45;;;;;;;25.47;15.50;;;6.20;82.00;;;;;;5105693;27;20424;-75
2020/12/07 08:39:12;;;;;;;25.58;15.52;;;6.20;82.30;;;;;;5127476;27;20459;-75
2020/12/07 08:41:39;;;;;;;28.75;16.05;;;6.40;82.30;;;;;;5132566;27;20426;-74
2020/12/07 08:44:07;;;;;;;27.52;15.50;;;6.60;80.10;;;;;;5092112;28;20420;-74
2020/12/07 08:46:38;;;;;;;33.45;15.88;;;6.70;79.70;;;;;;5094294;28;20404;-75
2020/12/07 08:49:09;;;;;;;25.85;14.70;;;6.90;80.30;;;;;;5092256;28;20429;-75
2020/12/07 08:51:39;;;;;;;25.77;14.20;;;7.00;79.10;;;;;;5091825;28;20894;-75
2020/12/07 08:54:07;;;;;;;24.50;14.33;;;7.00;78.70;;;;;;5089129;28;20406;-75
2020/12/07 08:56:33;;;;;;;23.83;14.50;;;7.20;78.00;;;;;;5074262;28;20402;-75
2020/12/07 08:58:59;;;;;;;25.77;14.63;;;7.10;78.10;;;;;;5084188;27;20490;-75
2020/12/07 09:01:26;;;;;;;24.23;14.65;;;7.00;78.50;;;;;;5115002;27;20441;-74
2020/12/07 09:03:53;;;;;;;23.58;14.80;;;7.10;77.80;;;;;;5104250;28;20416;-75
2020/12/07 09:06:20;;;;;;;22.58;14.35;;;7.20;78.20;;;;;;5112034;28;20453;-75
2020/12/07 09:08:46;;;;;;;23.65;13.68;;;7.40;77.50;;;;;;5108849;28;20412;-75
2020/12/07 09:11:17;;;;;;;22.33;13.52;;;7.60;77.70;;;;;;5094763;28;20443;-75
2020/12/07 09:13:44;;;;;;;21.55;13.43;;;7.90;77.00;;;;;;5091840;28;20458;-75
2020/12/07 09:16:11;;;;;;;19.77;13.07;;;8.20;75.40;;;;;;5091229;28;20751;-75
2020/12/07 09:18:38;;;;;;;23.00;12.90;;;8.60;74.50;;;;;;5091779;28;20501;-75
2020/12/07 09:21:06;;;;;;;20.92;12.45;;;9.40;71.20;;;;;;5093179;28;20528;-75
2020/12/07 09:23:34;;;;;;;18.63;12.17;;;10.10;68.40;;;;;;5074203;28;20401;-75
2020/12/07 09:26:03;;;;;;;20.20;11.88;;;11.10;64.80;;;;;;5084821;28;20876;-75
2020/12/07 09:28:30;;;;;;;15.70;10.60;;;12.40;59.80;;;;;;5110992;27;20416;-75
2020/12/07 09:30:57;;;;;;;16.80;10.88;;;12.30;56.70;;;;;;5090248;28;20868;-75
2020/12/07 09:33:23;;;;;;;16.10;10.70;;;12.10;57.90;;;;;;5093601;28;20493;-76
2020/12/07 09:35:51;;;;;;;16.13;10.57;;;11.90;59.30;;;;;;5090263;28;20411;-75
2020/12/07 09:38:17;;;;;;;17.30;10.02;;;12.10;57.80;;;;;;5091444;28;20440;-75
2020/12/07 09:40:43;;;;;;;14.00;9.75;;;12.60;57.30;;;;;;5074811;28;20558;-75
2020/12/07 09:43:10;;;;;;;14.77;9.97;;;13.00;56.80;;;;;;5094025;28;20726;-76
2020/12/07 09:45:38;;;;;;;14.07;10.07;;;13.50;54.70;;;;;;5088734;28;20427;-76
2020/12/07 09:48:05;;;;;;;14.25;9.95;;;14.30;53.20;;;;;;5092500;28;20775;-76
2020/12/07 09:50:35;;;;;;;13.38;9.82;;;14.30;52.20;;;;;;5093951;28;20393;-75
2020/12/07 09:53:08;;;;;;;13.90;9.40;;;14.40;50.90;;;;;;5105792;28;20498;-76
2020/12/07 09:55:35;;;;;;;15.10;9.43;;;14.70;50.60;;;;;;5111241;28;20466;-76
2020/12/07 09:58:03;;;;;;;14.52;10.00;;;14.80;50.00;;;;;;5089879;28;20416;-75
2020/12/07 10:00:30;;;;;;;15.23;10.45;;;14.90;51.30;;;;;;5126607;27;20457;-76
2020/12/07 10:02:59;;;;;;;16.40;10.55;;;15.10;50.30;;;;;;5126234;27;20932;-76
2020/12/07 10:05:25;;;;;;;14.30;9.90;;;15.40;49.80;;;;;;5110706;28;20730;-75
2020/12/07 10:07:51;;;;;;;13.75;10.38;;;15.60;49.00;;;;;;5107080;28;20892;-76
2020/12/07 10:10:18;;;;;;;15.20;10.63;;;15.80;47.60;;;;;;5093468;28;20400;-77
2020/12/07 10:12:46;;;;;;;14.95;9.85;;;15.90;48.70;;;;;;5105404;28;20404;-76
2020/12/07 10:15:13;;;;;;;14.38;10.23;;;15.80;47.40;;;;;;5091931;28;20501;-75
2020/12/07 10:17:39;;;;;;;15.43;10.10;;;15.50;47.80;;;;;;5088999;28;20462;-76
2020/12/07 10:20:10;;;;;;;14.70;10.07;;;15.60;47.90;;;;;;5086596;28;20459;-76
2020/12/07 10:22:36;;;;;;;17.00;9.93;;;15.80;48.10;;;;;;5070169;28;20401;-76
2020/12/07 10:25:03;;;;;;;13.88;10.02;;;15.90;48.20;;;;;;5109426;28;20459;-76
2020/12/07 10:27:30;;;;;;;13.13;9.57;;;16.10;46.70;;;;;;5092846;28;20871;-75
2020/12/07 10:29:56;;;;;;;15.88;9.35;;;16.20;46.20;;;;;;5087786;28;20857;-76
2020/12/07 10:32:22;;;;;;;15.30;9.90;;;16.40;45.90;;;;;;5092631;28;20779;-76
2020/12/07 10:34:51;;;;;;;15.40;9.43;;;16.60;45.50;;;;;;5095466;28;20439;-76
2020/12/07 10:37:20;;;;;;;14.27;9.90;;;17.00;44.70;;;;;;5110205;28;20395;-76
2020/12/07 10:39:46;;;;;;;13.32;9.43;;;17.30;44.40;;;;;;5088610;28;20448;-76
2020/12/07 10:42:13;;;;;;;11.43;7.90;;;17.80;43.40;;;;;;5112783;28;20493;-76
2020/12/07 10:44:39;;;;;;;12.50;8.10;;;18.60;41.20;;;;;;5106496;28;20909;-76
2020/12/07 10:47:05;;;;;;;13.32;7.60;;;18.80;39.20;;;;;;5092914;28;20396;-76
2020/12/07 10:49:32;;;;;;;10.43;7.55;;;19.20;39.10;;;;;;5106649;28;20786;-76
2020/12/07 10:52:03;;;;;;;11.43;7.70;;;19.10;39.10;;;;;;5092708;28;20745;-76
2020/12/07 10:54:29;;;;;;;11.10;8.23;;;19.30;38.40;;;;;;5089709;28;20448;-76
2020/12/07 10:56:58;;;;;;;12.13;7.63;;;19.40;38.40;;;;;;5110167;28;20444;-76
2020/12/07 10:59:25;;;;;;;11.65;7.90;;;19.70;38.60;;;;;;5110508;28;20408;-76
2020/12/07 11:01:55;;;;;;;11.55;7.60;;;19.30;38.40;;;;;;5088780;28;20423;-76
2020/12/07 11:04:22;;;;;;;11.90;7.70;;;19.50;38.20;;;;;;5110031;28;20485;-76
2020/12/07 11:06:51;;;;;;;10.20;7.28;;;19.70;38.50;;;;;;5106732;28;20439;-76
2020/12/07 11:09:23;;;;;;;11.07;6.80;;;19.90;37.90;;;;;;5109617;28;20848;-76
2020/12/07 11:11:59;;;;;;;11.88;6.80;;;19.90;37.20;;;;;;5090993;28;20487;-76
2020/12/07 11:14:28;;;;;;;9.53;5.83;;;20.10;36.80;;;;;;5114435;28;20411;-76
2020/12/07 11:16:58;;;;;;;8.50;6.28;;;20.40;36.20;;;;;;5092787;28;20477;-76
2020/12/07 11:19:24;;;;;;;10.52;6.50;;;20.50;35.80;;;;;;5114074;28;20473;-76
2020/12/07 11:21:51;;;;;;;8.50;5.88;;;20.60;35.40;;;;;;5081643;28;20436;-76
2020/12/07 11:24:17;;;;;;;8.20;5.82;;;20.70;35.70;;;;;;5114249;28;20452;-76
2020/12/07 11:26:48;;;;;;;9.95;6.45;;;20.90;35.20;;;;;;5092729;28;20480;-76
2020/12/07 11:29:15;;;;;;;11.02;6.43;;;20.90;36.00;;;;;;5096475;28;20396;-77
2020/12/07 11:31:49;;;;;;;9.13;7.00;;;20.90;35.40;;;;;;5109579;28;20856;-76
2020/12/07 11:34:22;;;;;;;8.65;6.30;;;21.10;35.30;;;;;;5114283;28;20477;-76
2020/12/07 11:36:49;;;;;;;10.57;6.20;;;21.20;35.10;;;;;;5110423;28;20427;-77
2020/12/07 11:44:28;;;;;;;9.43;6.05;;;20.80;34.70;;;;;;5110222;28;20419;-76
2020/12/07 11:47:00;;;;;;;10.05;5.80;;;20.90;34.90;;;;;;5095725;28;20456;-76
2020/12/07 11:49:29;;;;;;;7.78;5.63;;;21.10;34.30;;;;;;5109455;28;20925;-77
2020/12/07 11:51:56;;;;;;;8.02;5.72;;;21.20;34.30;;;;;;5113706;28;20472;-76
2020/12/07 11:54:24;;;;;;;7.07;5.20;;;21.20;34.10;;;;;;5092483;28;20408;-77
2020/12/07 11:56:51;;;;;;;6.77;5.23;;;21.20;33.90;;;;;;5096047;28;20409;-76
2020/12/07 11:59:20;;;;;;;7.13;5.60;;;21.40;33.70;;;;;;5115433;27;21184;-76
2020/12/07 12:01:48;;;;;;;8.73;5.50;;;21.80;33.10;;;;;;5134183;27;20417;-76
2020/12/07 12:04:19;;;;;;;7.97;5.50;;;21.90;32.50;;;;;;5113758;27;20890;-76
2020/12/07 12:06:46;;;;;;;9.65;6.15;;;21.70;32.80;;;;;;5092975;28;20923;-76
2020/12/07 12:09:14;;;;;;;10.73;6.78;;;21.50;33.60;;;;;;5077849;28;20435;-76
2020/12/07 12:11:43;;;;;;;7.72;5.72;;;21.60;33.00;;;;;;5113780;28;20455;-77
2020/12/07 12:14:10;;;;;;;8.82;6.28;;;21.70;33.40;;;;;;5090792;28;20400;-76
2020/12/07 12:16:41;;;;;;;9.50;6.00;;;21.70;33.10;;;;;;5092568;28;20402;-77
2020/12/07 12:19:09;;;;;;;7.78;5.65;;;22.10;31.90;;;;;;5092582;28;20448;-77
2020/12/07 12:21:39;;;;;;;7.30;4.93;;;22.40;31.20;;;;;;5074101;28;20440;-76
2020/12/07 12:24:06;;;;;;;7.55;5.22;;;22.20;31.80;;;;;;5089596;28;20485;-77
2020/12/07 12:26:34;;;;;;;8.15;5.63;;;22.10;32.00;;;;;;5090771;28;20424;-77
2020/12/07 12:29:03;;;;;;;8.15;5.88;;;22.10;32.50;;;;;;5095197;28;20706;-76
2020/12/07 12:31:33;;;;;;;14.07;6.18;;;21.90;32.40;;;;;;5094588;28;20453;-77
2020/12/07 12:33:59;;;;;;;9.25;5.93;;;22.10;33.00;;;;;;5074984;28;20931;-76
2020/12/07 12:36:28;;;;;;;12.15;6.10;;;22.20;32.60;;;;;;5101102;28;20432;-76
2020/12/07 12:39:00;;;;;;;8.87;6.03;;;22.30;32.40;;;;;;5094880;28;20404;-76
2020/12/07 12:41:26;;;;;;;9.70;6.25;;;22.60;31.40;;;;;;5091433;28;20431;-77
2020/12/07 12:43:55;;;;;;;9.30;6.00;;;22.40;32.10;;;;;;5094766;28;20418;-77
2020/12/07 12:46:22;;;;;;;10.20;6.28;;;22.30;31.80;;;;;;5091387;28;20432;-76
2020/12/07 12:48:52;;;;;;;9.30;6.15;;;22.00;32.70;;;;;;5094891;28;20412;-77
2020/12/07 12:51:18;;;;;;;7.90;5.82;;;22.00;32.70;;;;;;5108513;27;20421;-76
2020/12/07 12:53:45;;;;;;;10.38;6.13;;;22.00;31.80;;;;;;5095071;28;20447;-77
2020/12/07 12:56:12;;;;;;;10.93;5.70;;;22.10;31.60;;;;;;5099052;28;20396;-77
2020/12/07 12:58:39;;;;;;;9.02;5.93;;;22.40;31.20;;;;;;5111720;27;20404;-76
2020/12/07 13:01:08;;;;;;;9.40;5.85;;;22.10;31.60;;;;;;5130204;27;21121;-77
2020/12/07 13:03:35;;;;;;;8.93;6.13;;;22.20;32.30;;;;;;5111295;27;20421;-76
2020/12/07 13:06:06;;;;;;;10.70;6.20;;;22.30;32.20;;;;;;5112046;28;20432;-77
2020/12/07 13:08:34;;;;;;;9.60;6.15;;;22.50;31.70;;;;;;5090976;28;20396;-77
2020/12/07 13:11:01;;;;;;;9.70;6.80;;;22.30;32.30;;;;;;5093326;28;20418;-76
2020/12/07 13:13:27;;;;;;;10.15;6.68;;;22.20;32.60;;;;;;5091139;28;20396;-76
2020/12/07 13:16:03;;;;;;;9.40;6.45;;;22.10;33.10;;;;;;5094351;28;20397;-77
2020/12/07 13:18:37;;;;;;;8.63;6.13;;;22.10;32.00;;;;;;5090030;28;20408;-76
2020/12/07 13:21:18;;;;;;;11.90;6.10;;;21.50;32.90;;;;;;5098716;28;20413;-76
2020/12/07 13:23:52;;;;;;;8.38;6.18;;;21.60;33.00;;;;;;5078825;28;20508;-76
2020/12/07 13:28:53;;;;;;;8.02;5.70;;;21.60;32.30;;;;;;5108429;28;20489;-76